Time;durP1;ratioP1;P1;durP2;ratioP2;P2;SDS_P1;SDS_P2;PMS_P1;PMS_P2;Temp;Humidity;BMP_temperature;BMP_pressure;BME280_temperature;BME280_humidity;BME280_pressure;Samples;Min_cycle;Max_cycle;Signal;HPM_P1;HPM_P2
2023/05/26 00:00:20;;;;;;;17.43;4.60;;;;;;;;;;5073852;28;20290;-54
2023/05/26 00:02:46;;;;;;;19.20;5.03;;;;;;;;;;5073842;28;20287;-54
2023/05/26 00:05:13;;;;;;;18.20;5.33;;;;;;;;;;5073477;28;20394;-54
2023/05/26 00:07:40;;;;;;;15.57;4.80;;;;;;;;;;5073750;28;20204;-54
2023/05/26 00:10:06;;;;;;;16.90;4.90;;;;;;;;;;5073762;28;20199;-54
2023/05/26 00:12:32;;;;;;;18.07;5.43;;;;;;;;;;5073411;28;20235;-55
2023/05/26 00:15:00;;;;;;;21.43;5.10;;;;;;;;;;5073613;28;20294;-54
2023/05/26 00:17:26;;;;;;;22.13;5.70;;;;;;;;;;5073271;28;20211;-54
2023/05/26 00:19:52;;;;;;;12.57;4.60;;;;;;;;;;5072438;28;20653;-54
2023/05/26 00:22:19;;;;;;;18.30;5.67;;;;;;;;;;5073140;28;20223;-54
2023/05/26 00:24:45;;;;;;;18.50;5.13;;;;;;;;;;5073415;28;20208;-54
2023/05/26 00:27:12;;;;;;;15.13;4.47;;;;;;;;;;5073179;28;20719;-54
2023/05/26 00:29:38;;;;;;;17.53;5.37;;;;;;;;;;5073220;28;20188;-54
2023/05/26 00:32:05;;;;;;;18.27;4.93;;;;;;;;;;5073209;28;20273;-54
2023/05/26 00:34:33;;;;;;;10.90;4.27;;;;;;;;;;5073030;28;20208;-54
2023/05/26 00:37:00;;;;;;;15.23;5.27;;;;;;;;;;5073024;28;20199;-54
2023/05/26 00:39:26;;;;;;;15.93;4.60;;;;;;;;;;5072814;28;20735;-54
2023/05/26 00:41:52;;;;;;;20.80;5.27;;;;;;;;;;5073085;28;20195;-54
2023/05/26 00:44:18;;;;;;;16.37;4.80;;;;;;;;;;5072920;28;20198;-54
2023/05/26 00:46:44;;;;;;;18.03;5.80;;;;;;;;;;5073080;28;20203;-54
2023/05/26 00:49:11;;;;;;;19.67;5.40;;;;;;;;;;5072811;28;20211;-54
2023/05/26 00:51:38;;;;;;;13.90;4.83;;;;;;;;;;5072601;28;20188;-54
2023/05/26 00:54:05;;;;;;;17.70;5.20;;;;;;;;;;5072778;28;20674;-54
2023/05/26 00:56:31;;;;;;;19.80;5.60;;;;;;;;;;5072555;28;20206;-54
2023/05/26 00:58:58;;;;;;;18.03;5.07;;;;;;;;;;5072668;28;20241;-54
2023/05/26 01:01:25;;;;;;;20.40;5.50;;;;;;;;;;5072698;28;20197;-54
2023/05/26 01:03:51;;;;;;;15.57;5.13;;;;;;;;;;5072610;28;20222;-54
2023/05/26 01:06:18;;;;;;;17.77;5.63;;;;;;;;;;5072468;28;20567;-54
2023/05/26 01:08:44;;;;;;;17.40;5.90;;;;;;;;;;5072421;28;20199;-54
2023/05/26 01:11:14;;;;;;;18.73;5.13;;;;;;;;;;5072449;28;20609;-54
2023/05/26 01:13:45;;;;;;;12.93;5.23;;;;;;;;;;5072273;28;20222;-54
2023/05/26 01:16:12;;;;;;;17.70;5.17;;;;;;;;;;5072362;28;20285;-54
2023/05/26 01:18:41;;;;;;;17.70;6.17;;;;;;;;;;5072411;28;20195;-54
2023/05/26 01:21:08;;;;;;;14.17;4.67;;;;;;;;;;5072408;28;20195;-54
2023/05/26 01:23:48;;;;;;;19.20;5.43;;;;;;;;;;5072092;28;20231;-54
2023/05/26 01:26:23;;;;;;;20.07;5.43;;;;;;;;;;5072218;28;20199;-54
2023/05/26 01:28:52;;;;;;;19.67;5.47;;;;;;;;;;5072179;28;20253;-55
2023/05/26 01:31:18;;;;;;;24.00;5.13;;;;;;;;;;5071855;28;20616;-54
2023/05/26 01:33:44;;;;;;;18.47;5.20;;;;;;;;;;5071979;28;20326;-55
2023/05/26 01:36:10;;;;;;;18.47;5.60;;;;;;;;;;5071974;28;20195;-54
2023/05/26 01:38:36;;;;;;;17.10;4.93;;;;;;;;;;5072062;28;20733;-54
2023/05/26 01:41:05;;;;;;;17.57;5.17;;;;;;;;;;5072232;28;20192;-54
2023/05/26 01:43:39;;;;;;;15.47;5.10;;;;;;;;;;5071832;28;20196;-54
2023/05/26 01:46:10;;;;;;;19.47;4.33;;;;;;;;;;5072089;28;20207;-53
2023/05/26 01:48:37;;;;;;;19.17;5.70;;;;;;;;;;5071881;28;20212;-54
2023/05/26 01:51:06;;;;;;;18.30;4.80;;;;;;;;;;5071798;28;20191;-54
2023/05/26 01:53:33;;;;;;;16.93;5.27;;;;;;;;;;5071585;28;20721;-54
2023/05/26 01:55:59;;;;;;;17.70;5.30;;;;;;;;;;5071732;28;20192;-54
2023/05/26 01:58:26;;;;;;;17.27;5.27;;;;;;;;;;5071600;28;20206;-54
2023/05/26 02:00:55;;;;;;;18.90;5.13;;;;;;;;;;5071731;28;20654;-54
2023/05/26 02:03:22;;;;;;;15.00;4.50;;;;;;;;;;5071638;28;20537;-54
2023/05/26 02:05:48;;;;;;;17.07;5.47;;;;;;;;;;5071804;28;20203;-53
2023/05/26 02:08:14;;;;;;;16.27;4.83;;;;;;;;;;5071901;28;20196;-53
2023/05/26 02:10:40;;;;;;;16.37;4.87;;;;;;;;;;5071404;28;20274;-53
2023/05/26 02:13:06;;;;;;;16.50;5.20;;;;;;;;;;5071679;28;20777;-54
2023/05/26 02:15:33;;;;;;;15.73;4.83;;;;;;;;;;5071522;28;20204;-54
2023/05/26 02:17:59;;;;;;;11.83;5.07;;;;;;;;;;5071503;28;20751;-54
2023/05/26 02:20:26;;;;;;;17.13;5.33;;;;;;;;;;5071384;28;20195;-54
2023/05/26 02:22:52;;;;;;;18.23;5.20;;;;;;;;;;5071334;28;20242;-54
2023/05/26 02:25:18;;;;;;;16.23;5.20;;;;;;;;;;5071615;28;20547;-54
2023/05/26 02:27:44;;;;;;;17.03;4.57;;;;;;;;;;5071266;28;20207;-54
2023/05/26 02:30:11;;;;;;;15.83;5.23;;;;;;;;;;5071358;28;20274;-54
2023/05/26 02:32:37;;;;;;;14.97;5.07;;;;;;;;;;5071361;28;20230;-54
2023/05/26 02:35:03;;;;;;;17.87;5.70;;;;;;;;;;5071524;28;20188;-54
2023/05/26 02:37:31;;;;;;;14.40;5.27;;;;;;;;;;5071312;28;20215;-54
2023/05/26 02:39:57;;;;;;;21.60;5.40;;;;;;;;;;5071397;28;20227;-54
2023/05/26 02:42:23;;;;;;;17.50;4.70;;;;;;;;;;5071347;28;20188;-54
2023/05/26 02:44:50;;;;;;;16.03;4.50;;;;;;;;;;5074983;28;20600;-54
2023/05/26 02:47:16;;;;;;;19.67;5.00;;;;;;;;;;5075134;28;20658;-54
2023/05/26 02:49:42;;;;;;;15.63;5.57;;;;;;;;;;5075004;28;20259;-54
2023/05/26 02:52:08;;;;;;;18.30;5.77;;;;;;;;;;5074992;28;20732;-54
2023/05/26 02:54:35;;;;;;;18.20;4.80;;;;;;;;;;5075118;28;20200;-54
2023/05/26 02:57:01;;;;;;;17.93;5.73;;;;;;;;;;5074975;28;20204;-54
2023/05/26 02:59:28;;;;;;;16.00;4.83;;;;;;;;;;5074891;28;20204;-54
2023/05/26 03:01:54;;;;;;;20.80;5.57;;;;;;;;;;5074885;28;20278;-53
2023/05/26 03:04:20;;;;;;;18.27;5.13;;;;;;;;;;5074909;28;20216;-54
2023/05/26 03:06:46;;;;;;;15.23;5.13;;;;;;;;;;5074712;28;20206;-53
2023/05/26 03:09:12;;;;;;;16.63;5.00;;;;;;;;;;5074819;28;20281;-54
2023/05/26 03:11:39;;;;;;;17.37;5.13;;;;;;;;;;5074737;28;20206;-54
2023/05/26 03:14:05;;;;;;;21.63;5.20;;;;;;;;;;5074753;28;20306;-54
2023/05/26 03:16:31;;;;;;;18.70;5.10;;;;;;;;;;5074300;28;20733;-54
2023/05/26 03:18:57;;;;;;;18.10;5.67;;;;;;;;;;5073761;28;20258;-54
2023/05/26 03:21:23;;;;;;;16.50;4.67;;;;;;;;;;5074024;28;20277;-53
2023/05/26 03:23:49;;;;;;;18.07;5.47;;;;;;;;;;5074358;28;20267;-54
2023/05/26 03:26:16;;;;;;;12.30;4.93;;;;;;;;;;5074443;28;20202;-54
2023/05/26 03:28:43;;;;;;;11.53;4.83;;;;;;;;;;5074100;28;20234;-54
2023/05/26 03:31:09;;;;;;;15.93;5.33;;;;;;;;;;5074514;28;20199;-54
2023/05/26 03:33:35;;;;;;;18.87;5.13;;;;;;;;;;5074483;28;20253;-54
2023/05/26 03:36:01;;;;;;;15.73;4.97;;;;;;;;;;5074320;28;20257;-54
2023/05/26 03:38:27;;;;;;;18.03;5.10;;;;;;;;;;5074273;28;20196;-54
2023/05/26 03:40:53;;;;;;;18.43;6.53;;;;;;;;;;5074127;28;20203;-53
2023/05/26 03:43:19;;;;;;;16.30;4.90;;;;;;;;;;5074244;28;20204;-53
2023/05/26 03:45:47;;;;;;;18.77;5.27;;;;;;;;;;5074006;28;20199;-53
2023/05/26 03:48:13;;;;;;;17.07;5.87;;;;;;;;;;5074164;28;20203;-54
2023/05/26 03:50:40;;;;;;;24.87;5.57;;;;;;;;;;5073854;28;20343;-54
2023/05/26 03:53:06;;;;;;;15.40;5.20;;;;;;;;;;5074135;28;20238;-54
2023/05/26 03:55:36;;;;;;;17.33;4.37;;;;;;;;;;5073858;28;20272;-54
2023/05/26 03:58:02;;;;;;;15.83;5.13;;;;;;;;;;5073987;28;20203;-54
2023/05/26 04:00:30;;;;;;;15.60;5.10;;;;;;;;;;5073915;28;20295;-54
2023/05/26 04:02:57;;;;;;;15.87;5.17;;;;;;;;;;5073741;28;20202;-54
2023/05/26 04:05:23;;;;;;;21.07;5.37;;;;;;;;;;5073861;28;20235;-54
2023/05/26 04:07:49;;;;;;;12.83;5.13;;;;;;;;;;5073754;28;20200;-54
2023/05/26 04:10:15;;;;;;;16.47;5.43;;;;;;;;;;5073545;28;20654;-54
2023/05/26 04:12:41;;;;;;;16.33;4.83;;;;;;;;;;5073379;28;20226;-54
2023/05/26 04:15:11;;;;;;;15.10;5.47;;;;;;;;;;5073675;28;20199;-54
2023/05/26 04:17:37;;;;;;;17.47;5.43;;;;;;;;;;5073547;28;20249;-54
2023/05/26 04:20:06;;;;;;;14.83;5.00;;;;;;;;;;5073523;28;20223;-54
2023/05/26 04:22:32;;;;;;;18.43;5.50;;;;;;;;;;5073158;28;20254;-54
2023/05/26 04:24:58;;;;;;;16.47;5.40;;;;;;;;;;5073235;28;20191;-54
2023/05/26 04:27:27;;;;;;;10.67;4.53;;;;;;;;;;5073352;28;20633;-54
2023/05/26 04:29:53;;;;;;;18.17;4.97;;;;;;;;;;5073382;28;20530;-54
2023/05/26 04:32:21;;;;;;;19.20;5.17;;;;;;;;;;5073284;28;20219;-54
2023/05/26 04:34:49;;;;;;;13.20;5.00;;;;;;;;;;5072993;28;20207;-54
2023/05/26 04:37:16;;;;;;;16.80;4.97;;;;;;;;;;5073162;28;20196;-54
2023/05/26 04:39:43;;;;;;;17.60;5.13;;;;;;;;;;5072962;28;20200;-54
2023/05/26 04:42:09;;;;;;;17.77;5.10;;;;;;;;;;5073106;28;20204;-55
2023/05/26 04:44:37;;;;;;;14.70;4.80;;;;;;;;;;5072964;28;20279;-54
2023/05/26 04:47:03;;;;;;;14.33;5.07;;;;;;;;;;5072857;28;20249;-55
2023/05/26 04:49:30;;;;;;;16.70;5.07;;;;;;;;;;5072806;28;20629;-54
2023/05/26 04:51:57;;;;;;;17.97;5.03;;;;;;;;;;5072886;28;20691;-54
2023/05/26 04:54:25;;;;;;;17.77;4.73;;;;;;;;;;5073093;28;20211;-58
2023/05/26 04:56:51;;;;;;;19.70;5.73;;;;;;;;;;5072739;28;20206;-54
2023/05/26 04:59:17;;;;;;;17.83;5.23;;;;;;;;;;5072678;28;20183;-54
2023/05/26 05:01:44;;;;;;;16.13;4.83;;;;;;;;;;5072488;28;20279;-54
2023/05/26 05:04:10;;;;;;;17.97;5.07;;;;;;;;;;5072446;28;20295;-55
2023/05/26 05:06:36;;;;;;;17.43;5.70;;;;;;;;;;5072123;28;20228;-54
2023/05/26 05:09:02;;;;;;;13.37;4.73;;;;;;;;;;5072352;28;20245;-54
2023/05/26 05:11:30;;;;;;;18.00;4.90;;;;;;;;;;5072262;28;20199;-53
2023/05/26 05:13:56;;;;;;;15.97;4.80;;;;;;;;;;5072228;28;20293;-54
2023/05/26 05:16:22;;;;;;;14.47;5.00;;;;;;;;;;5072209;28;20192;-54
2023/05/26 05:18:48;;;;;;;19.40;5.30;;;;;;;;;;5072027;28;20257;-54
2023/05/26 05:21:14;;;;;;;16.13;4.83;;;;;;;;;;5072111;28;20227;-54
2023/05/26 05:23:40;;;;;;;16.37;5.00;;;;;;;;;;5071945;28;20258;-55
2023/05/26 05:26:06;;;;;;;16.40;5.10;;;;;;;;;;5072237;28;20257;-55
2023/05/26 05:28:33;;;;;;;17.60;5.50;;;;;;;;;;5072023;28;20203;-55
2023/05/26 05:30:59;;;;;;;11.27;4.50;;;;;;;;;;5071950;28;20206;-54
2023/05/26 05:33:27;;;;;;;13.93;4.63;;;;;;;;;;5071869;28;20227;-55
2023/05/26 05:35:53;;;;;;;14.67;5.70;;;;;;;;;;5071798;28;20227;-55
2023/05/26 05:38:19;;;;;;;12.43;4.60;;;;;;;;;;5072050;28;20215;-54
2023/05/26 05:40:45;;;;;;;17.33;5.00;;;;;;;;;;5071779;28;20633;-55
2023/05/26 05:43:11;;;;;;;16.00;4.63;;;;;;;;;;5071968;28;20192;-54
2023/05/26 05:45:39;;;;;;;18.47;5.43;;;;;;;;;;5071939;28;20210;-55
2023/05/26 05:48:05;;;;;;;17.07;5.03;;;;;;;;;;5071982;28;20200;-55
2023/05/26 05:50:31;;;;;;;17.43;4.97;;;;;;;;;;5071772;28;20200;-54
2023/05/26 05:52:57;;;;;;;16.00;5.20;;;;;;;;;;5071553;28;20314;-54
2023/05/26 05:55:23;;;;;;;16.70;4.90;;;;;;;;;;5071827;28;20650;-54
2023/05/26 05:57:51;;;;;;;18.60;5.00;;;;;;;;;;5071853;28;20226;-54
2023/05/26 06:00:18;;;;;;;16.77;5.70;;;;;;;;;;5071726;28;20253;-56
2023/05/26 06:02:45;;;;;;;17.77;5.47;;;;;;;;;;5071273;28;20487;-56
2023/05/26 06:05:11;;;;;;;16.53;4.50;;;;;;;;;;5071505;28;20619;-55
2023/05/26 06:07:37;;;;;;;12.37;4.83;;;;;;;;;;5071740;28;20203;-56
2023/05/26 06:10:04;;;;;;;16.97;4.70;;;;;;;;;;5071529;28;20290;-56
2023/05/26 06:12:30;;;;;;;18.13;5.43;;;;;;;;;;5071529;28;20219;-56
2023/05/26 06:14:56;;;;;;;14.77;4.40;;;;;;;;;;5072135;28;20206;-56
2023/05/26 06:17:22;;;;;;;17.67;5.43;;;;;;;;;;5072208;28;20278;-56
2023/05/26 06:19:49;;;;;;;14.63;4.60;;;;;;;;;;5075431;28;20191;-56
2023/05/26 06:22:15;;;;;;;17.93;5.03;;;;;;;;;;5075459;28;20226;-56
2023/05/26 06:24:41;;;;;;;14.37;4.17;;;;;;;;;;5075683;28;20200;-56
2023/05/26 06:27:10;;;;;;;16.17;5.00;;;;;;;;;;5075518;28;20199;-55
2023/05/26 06:29:36;;;;;;;13.13;4.80;;;;;;;;;;5075706;28;20199;-56
2023/05/26 06:32:02;;;;;;;12.67;4.20;;;;;;;;;;5075413;28;20211;-56
2023/05/26 06:34:28;;;;;;;12.87;4.80;;;;;;;;;;5075677;28;20200;-56
2023/05/26 06:36:56;;;;;;;12.60;4.57;;;;;;;;;;5075815;28;20199;-55
2023/05/26 06:39:23;;;;;;;11.33;4.43;;;;;;;;;;5076118;28;20229;-55
2023/05/26 06:41:49;;;;;;;13.40;4.43;;;;;;;;;;5076377;28;20223;-56
2023/05/26 06:44:15;;;;;;;14.67;5.20;;;;;;;;;;5075657;28;20214;-54
2023/05/26 06:46:41;;;;;;;14.30;4.17;;;;;;;;;;5075323;28;20677;-55
2023/05/26 06:49:08;;;;;;;15.03;4.93;;;;;;;;;;5075305;28;20243;-55
2023/05/26 06:51:34;;;;;;;14.33;4.97;;;;;;;;;;5075871;28;20213;-55
2023/05/26 06:54:02;;;;;;;14.40;4.77;;;;;;;;;;5075073;28;20251;-55
2023/05/26 06:56:28;;;;;;;15.33;4.87;;;;;;;;;;5075185;28;20203;-55
2023/05/26 06:58:54;;;;;;;11.40;4.43;;;;;;;;;;5075103;28;20795;-55
2023/05/26 07:01:20;;;;;;;13.90;4.93;;;;;;;;;;5075449;28;20215;-55
2023/05/26 07:03:46;;;;;;;12.93;4.70;;;;;;;;;;5075077;28;20219;-55
2023/05/26 07:06:12;;;;;;;16.73;4.77;;;;;;;;;;5074788;28;20231;-55
2023/05/26 07:08:38;;;;;;;14.17;4.83;;;;;;;;;;5075066;28;20727;-55
2023/05/26 07:11:06;;;;;;;14.20;4.90;;;;;;;;;;5075240;28;20601;-55
2023/05/26 07:13:32;;;;;;;10.43;4.17;;;;;;;;;;5074616;28;20605;-56
2023/05/26 07:15:58;;;;;;;12.70;4.37;;;;;;;;;;5074575;28;20200;-54
2023/05/26 07:18:24;;;;;;;12.93;4.10;;;;;;;;;;5074823;28;20204;-55
2023/05/26 07:20:50;;;;;;;12.57;4.10;;;;;;;;;;5075241;28;20574;-52
2023/05/26 07:23:16;;;;;;;13.43;4.67;;;;;;;;;;5074397;28;20255;-52
2023/05/26 07:25:43;;;;;;;12.17;4.87;;;;;;;;;;5074560;28;20230;-53
2023/05/26 07:28:10;;;;;;;10.83;4.17;;;;;;;;;;5074449;28;20198;-53
2023/05/26 07:30:36;;;;;;;14.43;4.97;;;;;;;;;;5074175;28;20206;-53
2023/05/26 07:33:02;;;;;;;14.23;5.00;;;;;;;;;;5074353;28;20310;-52
2023/05/26 07:35:28;;;;;;;11.03;4.30;;;;;;;;;;5074446;28;20207;-53
2023/05/26 07:37:55;;;;;;;11.33;4.00;;;;;;;;;;5074083;28;20278;-53
2023/05/26 07:40:21;;;;;;;10.53;4.03;;;;;;;;;;5074350;28;20669;-53
2023/05/26 07:42:47;;;;;;;9.10;4.20;;;;;;;;;;5074240;28;20207;-54
2023/05/26 07:45:14;;;;;;;14.90;4.67;;;;;;;;;;5074196;28;20192;-53
2023/05/26 07:47:40;;;;;;;12.03;4.00;;;;;;;;;;5074387;28;20203;-53
2023/05/26 07:50:07;;;;;;;19.47;5.23;;;;;;;;;;5074386;28;20197;-53
2023/05/26 07:52:33;;;;;;;12.90;4.43;;;;;;;;;;5074503;28;20227;-53
2023/05/26 07:54:59;;;;;;;14.20;4.50;;;;;;;;;;5074218;28;20192;-53
2023/05/26 07:57:25;;;;;;;10.83;3.97;;;;;;;;;;5074014;28;20616;-52
2023/05/26 07:59:51;;;;;;;10.40;3.60;;;;;;;;;;5074372;28;20191;-52
2023/05/26 08:02:18;;;;;;;12.60;4.57;;;;;;;;;;5074161;28;20195;-52
2023/05/26 08:04:44;;;;;;;13.20;4.43;;;;;;;;;;5073863;28;20555;-52
2023/05/26 08:07:10;;;;;;;8.50;3.83;;;;;;;;;;5073872;28;20295;-53
2023/05/26 08:09:36;;;;;;;13.27;4.17;;;;;;;;;;5074123;28;20284;-53
2023/05/26 08:12:03;;;;;;;12.87;4.53;;;;;;;;;;5073894;28;20202;-50
2023/05/26 08:14:29;;;;;;;12.20;4.50;;;;;;;;;;5073902;28;20277;-53
2023/05/26 08:16:55;;;;;;;10.73;4.07;;;;;;;;;;5073658;28;20202;-52
2023/05/26 08:19:22;;;;;;;13.20;4.43;;;;;;;;;;5073656;28;20234;-52
2023/05/26 08:21:48;;;;;;;12.40;4.77;;;;;;;;;;5073878;28;20247;-51
2023/05/26 08:24:14;;;;;;;11.77;4.10;;;;;;;;;;5073207;28;20237;-52
2023/05/26 08:26:40;;;;;;;10.93;4.50;;;;;;;;;;5073376;28;20197;-52
2023/05/26 08:29:08;;;;;;;16.17;4.10;;;;;;;;;;5073701;28;20201;-52
2023/05/26 08:31:34;;;;;;;9.10;4.03;;;;;;;;;;5073680;28;20283;-52
2023/05/26 08:34:00;;;;;;;12.93;4.10;;;;;;;;;;5073220;28;20326;-51
2023/05/26 08:36:28;;;;;;;9.57;3.60;;;;;;;;;;5073433;28;20211;-53
2023/05/26 08:38:54;;;;;;;11.10;4.50;;;;;;;;;;5073159;28;20724;-50
2023/05/26 08:41:22;;;;;;;11.77;4.57;;;;;;;;;;5072546;28;20200;-51
2023/05/26 08:43:51;;;;;;;12.13;4.30;;;;;;;;;;5073158;28;20590;-52
2023/05/26 08:46:17;;;;;;;13.07;4.37;;;;;;;;;;5073089;28;20271;-52
2023/05/26 08:48:44;;;;;;;13.73;4.73;;;;;;;;;;5072972;28;20262;-52
2023/05/26 08:51:11;;;;;;;11.87;4.37;;;;;;;;;;5072945;28;20196;-52
2023/05/26 08:53:39;;;;;;;11.33;4.30;;;;;;;;;;5070576;28;20258;-52
2023/05/26 08:56:07;;;;;;;10.43;4.10;;;;;;;;;;5072547;28;20209;-53
2023/05/26 08:58:33;;;;;;;13.20;4.23;;;;;;;;;;5072591;28;20190;-53
2023/05/26 09:01:00;;;;;;;12.07;4.33;;;;;;;;;;5072464;28;20202;-53
2023/05/26 09:03:26;;;;;;;10.80;4.60;;;;;;;;;;5072280;28;20199;-53
2023/05/26 09:05:52;;;;;;;13.40;4.13;;;;;;;;;;5072532;28;20230;-52
2023/05/26 09:08:18;;;;;;;12.00;3.83;;;;;;;;;;5072272;28;20215;-53
2023/05/26 09:10:45;;;;;;;15.83;4.63;;;;;;;;;;5072374;28;20224;-53
2023/05/26 09:13:17;;;;;;;10.80;4.13;;;;;;;;;;5071963;28;20232;-52
2023/05/26 09:15:43;;;;;;;9.17;3.87;;;;;;;;;;5072227;28;20199;-52
2023/05/26 09:18:10;;;;;;;12.80;4.63;;;;;;;;;;5072022;28;20290;-53
2023/05/26 09:20:39;;;;;;;14.80;4.10;;;;;;;;;;5072217;28;20279;-52
2023/05/26 09:23:05;;;;;;;13.07;4.57;;;;;;;;;;5071614;28;20231;-52
2023/05/26 09:25:34;;;;;;;8.90;3.57;;;;;;;;;;5072041;28;20210;-52
2023/05/26 09:28:02;;;;;;;12.47;4.63;;;;;;;;;;5071865;28;20226;-52
2023/05/26 09:30:29;;;;;;;10.37;3.50;;;;;;;;;;5071561;28;20217;-52
2023/05/26 09:32:55;;;;;;;11.40;3.87;;;;;;;;;;5071810;28;20211;-52
2023/05/26 09:35:21;;;;;;;11.07;3.70;;;;;;;;;;5071672;28;20195;-52
2023/05/26 09:37:47;;;;;;;11.73;4.17;;;;;;;;;;5071996;28;20686;-52
2023/05/26 09:40:14;;;;;;;14.00;4.30;;;;;;;;;;5071640;28;20199;-53
2023/05/26 09:42:47;;;;;;;9.67;4.23;;;;;;;;;;5071807;28;20326;-53
2023/05/26 09:45:16;;;;;;;11.37;4.03;;;;;;;;;;5071700;28;20278;-52
2023/05/26 09:47:42;;;;;;;13.93;4.70;;;;;;;;;;5071719;28;20449;-53
2023/05/26 09:50:08;;;;;;;10.03;3.60;;;;;;;;;;5071610;28;20666;-51
2023/05/26 09:52:34;;;;;;;13.43;3.93;;;;;;;;;;5071594;28;20200;-51
2023/05/26 09:55:00;;;;;;;9.30;3.60;;;;;;;;;;5071636;28;20621;-51
2023/05/26 09:57:28;;;;;;;13.50;4.60;;;;;;;;;;5071691;28;20231;-52
2023/05/26 09:59:54;;;;;;;8.57;3.70;;;;;;;;;;5071611;28;20199;-52
2023/05/26 10:02:22;;;;;;;8.17;3.70;;;;;;;;;;5071606;28;20226;-52
2023/05/26 10:04:52;;;;;;;12.27;4.07;;;;;;;;;;5071263;28;20262;-52
2023/05/26 10:07:18;;;;;;;7.80;3.57;;;;;;;;;;5071596;28;20223;-52
2023/05/26 10:09:46;;;;;;;7.80;3.43;;;;;;;;;;5071486;28;20199;-50
2023/05/26 10:12:12;;;;;;;11.13;4.10;;;;;;;;;;5071277;28;20200;-52
2023/05/26 10:14:38;;;;;;;7.87;3.57;;;;;;;;;;5071246;28;20246;-52
2023/05/26 10:17:04;;;;;;;8.80;3.53;;;;;;;;;;5071356;28;20196;-52
2023/05/26 10:19:32;;;;;;;9.87;3.50;;;;;;;;;;5071283;28;20203;-52
2023/05/26 10:22:02;;;;;;;11.13;4.40;;;;;;;;;;5071178;28;20329;-51
2023/05/26 10:24:31;;;;;;;10.90;4.07;;;;;;;;;;5071148;28;20645;-52
2023/05/26 10:27:01;;;;;;;8.60;3.70;;;;;;;;;;5071324;28;20211;-53
2023/05/26 10:29:30;;;;;;;9.13;3.67;;;;;;;;;;5071186;28;20286;-51
2023/05/26 10:31:56;;;;;;;8.77;3.73;;;;;;;;;;5071136;28;20211;-52
2023/05/26 10:34:38;;;;;;;10.43;4.07;;;;;;;;;;5070888;28;20641;-52
2023/05/26 10:37:13;;;;;;;10.67;4.00;;;;;;;;;;5071267;28;20751;-53
2023/05/26 10:39:40;;;;;;;10.90;3.87;;;;;;;;;;5071072;28;20204;-53
2023/05/26 10:42:16;;;;;;;11.17;3.83;;;;;;;;;;5071165;28;20228;-53
2023/05/26 10:44:42;;;;;;;8.53;3.80;;;;;;;;;;5071228;28;20398;-53
2023/05/26 10:47:13;;;;;;;11.73;4.23;;;;;;;;;;5071050;28;20196;-52
2023/05/26 10:49:51;;;;;;;8.70;3.53;;;;;;;;;;5070899;28;20667;-52
2023/05/26 10:52:17;;;;;;;8.43;3.70;;;;;;;;;;5071007;28;20784;-52
2023/05/26 10:54:44;;;;;;;8.27;3.70;;;;;;;;;;5070862;28;20231;-52
2023/05/26 10:57:25;;;;;;;8.93;3.43;;;;;;;;;;5070881;28;20203;-52
2023/05/26 10:59:53;;;;;;;10.87;3.97;;;;;;;;;;5071020;28;20659;-52
2023/05/26 11:02:21;;;;;;;8.50;3.73;;;;;;;;;;5071074;28;20200;-52
2023/05/26 11:04:49;;;;;;;11.07;3.87;;;;;;;;;;5072893;28;20232;-52
2023/05/26 11:07:17;;;;;;;8.43;3.33;;;;;;;;;;5074494;28;20199;-52
2023/05/26 11:09:56;;;;;;;14.70;4.07;;;;;;;;;;5074324;28;20691;-52
2023/05/26 11:12:22;;;;;;;10.17;3.53;;;;;;;;;;5074511;28;20205;-52
2023/05/26 11:14:48;;;;;;;10.20;3.87;;;;;;;;;;5074465;28;20232;-53
2023/05/26 11:17:17;;;;;;;10.13;3.67;;;;;;;;;;5074577;28;20197;-52
2023/05/26 11:19:53;;;;;;;11.00;3.67;;;;;;;;;;5074344;28;20294;-51
2023/05/26 11:22:21;;;;;;;12.03;4.00;;;;;;;;;;5074204;28;20244;-50
2023/05/26 11:24:49;;;;;;;9.30;4.00;;;;;;;;;;5074381;28;20239;-52
2023/05/26 11:27:15;;;;;;;10.40;3.73;;;;;;;;;;5074118;28;20211;-52
2023/05/26 11:29:41;;;;;;;9.73;3.57;;;;;;;;;;5074242;28;20197;-52
2023/05/26 11:32:07;;;;;;;10.33;4.07;;;;;;;;;;5074211;28;20207;-51
2023/05/26 11:34:33;;;;;;;12.97;3.97;;;;;;;;;;5074001;28;20308;-52
2023/05/26 11:36:59;;;;;;;8.60;3.73;;;;;;;;;;5074029;28;20694;-51
2023/05/26 11:39:31;;;;;;;9.53;3.90;;;;;;;;;;5074016;28;20570;-51
2023/05/26 11:42:05;;;;;;;10.40;4.23;;;;;;;;;;5074142;28;20231;-51
2023/05/26 11:44:31;;;;;;;10.00;3.70;;;;;;;;;;5073969;28;20288;-52
2023/05/26 11:46:57;;;;;;;8.40;3.40;;;;;;;;;;5073781;28;20278;-51
2023/05/26 11:49:23;;;;;;;9.87;3.73;;;;;;;;;;5073660;28;20228;-52
2023/05/26 11:51:50;;;;;;;9.33;3.20;;;;;;;;;;5074164;28;20204;-51
2023/05/26 11:54:17;;;;;;;9.20;3.43;;;;;;;;;;5073864;28;20253;-51
2023/05/26 11:56:44;;;;;;;9.43;3.43;;;;;;;;;;5073697;28;20652;-52
2023/05/26 11:59:15;;;;;;;8.60;3.30;;;;;;;;;;5073444;28;20202;-52
2023/05/26 12:01:41;;;;;;;8.40;3.20;;;;;;;;;;5073506;28;20209;-51
2023/05/26 12:04:07;;;;;;;8.40;3.20;;;;;;;;;;5073517;28;20222;-52
2023/05/26 12:06:38;;;;;;;7.97;3.33;;;;;;;;;;5073549;28;20201;-51
2023/05/26 12:09:09;;;;;;;9.70;3.87;;;;;;;;;;5073628;28;20583;-51
2023/05/26 12:11:37;;;;;;;9.50;3.60;;;;;;;;;;5073563;28;20206;-52
2023/05/26 12:14:05;;;;;;;10.90;3.50;;;;;;;;;;5073561;28;20226;-52
2023/05/26 12:16:32;;;;;;;6.57;3.40;;;;;;;;;;5072269;28;20252;-52
2023/05/26 12:18:59;;;;;;;8.00;3.60;;;;;;;;;;5073196;28;20210;-53
2023/05/26 12:21:26;;;;;;;10.07;3.73;;;;;;;;;;5072937;28;20206;-51
2023/05/26 12:23:53;;;;;;;10.33;3.53;;;;;;;;;;5072868;28;20242;-52
2023/05/26 12:26:22;;;;;;;14.43;3.50;;;;;;;;;;5073267;28;20210;-51
2023/05/26 12:29:03;;;;;;;9.63;3.23;;;;;;;;;;5073219;28;20206;-50
2023/05/26 12:31:36;;;;;;;7.93;3.20;;;;;;;;;;5070245;28;20206;-52
2023/05/26 12:34:02;;;;;;;7.47;3.43;;;;;;;;;;5072985;28;20223;-52
2023/05/26 12:36:28;;;;;;;8.57;3.30;;;;;;;;;;5072672;28;20252;-58
2023/05/26 12:38:54;;;;;;;11.47;3.57;;;;;;;;;;5072935;28;20235;-52
2023/05/26 12:41:20;;;;;;;8.70;3.87;;;;;;;;;;5072877;28;20221;-51
2023/05/26 12:43:47;;;;;;;8.90;3.47;;;;;;;;;;5072688;28;20633;-51
2023/05/26 12:46:13;;;;;;;8.77;3.33;;;;;;;;;;5072708;28;20202;-50
2023/05/26 12:48:40;;;;;;;11.70;3.77;;;;;;;;;;5072573;28;20213;-51
2023/05/26 12:51:06;;;;;;;7.10;3.07;;;;;;;;;;5072755;28;20195;-51
2023/05/26 12:53:32;;;;;;;8.63;3.40;;;;;;;;;;5072484;28;20230;-51
2023/05/26 12:55:59;;;;;;;9.47;3.60;;;;;;;;;;5072568;28;20211;-52
2023/05/26 12:58:25;;;;;;;9.80;3.93;;;;;;;;;;5072439;28;20195;-52
2023/05/26 13:00:52;;;;;;;8.23;3.50;;;;;;;;;;5072708;28;20196;-51
2023/05/26 13:03:20;;;;;;;8.67;3.40;;;;;;;;;;5072410;28;20203;-52
2023/05/26 13:05:50;;;;;;;9.13;2.93;;;;;;;;;;5072365;28;20359;-51
2023/05/26 13:08:17;;;;;;;6.77;3.27;;;;;;;;;;5072241;28;20615;-52
2023/05/26 13:10:44;;;;;;;9.60;3.37;;;;;;;;;;5072188;28;20191;-52
2023/05/26 13:13:11;;;;;;;9.67;3.00;;;;;;;;;;5072068;28;20772;-51
2023/05/26 13:15:37;;;;;;;9.43;3.83;;;;;;;;;;5072326;28;20226;-51
2023/05/26 13:18:03;;;;;;;11.37;3.73;;;;;;;;;;5072108;28;20199;-51
2023/05/26 13:20:29;;;;;;;10.20;3.47;;;;;;;;;;5072017;28;20210;-52
2023/05/26 13:22:56;;;;;;;6.30;3.10;;;;;;;;;;5071757;28;20759;-52
2023/05/26 13:25:23;;;;;;;7.93;3.27;;;;;;;;;;5072037;28;20200;-52
2023/05/26 13:27:49;;;;;;;11.87;4.00;;;;;;;;;;5071772;28;20188;-51
2023/05/26 13:30:15;;;;;;;7.67;2.80;;;;;;;;;;5071897;28;20199;-51
2023/05/26 13:32:41;;;;;;;8.83;3.40;;;;;;;;;;5071632;28;20281;-52
2023/05/26 13:35:07;;;;;;;9.13;3.37;;;;;;;;;;5071956;28;20226;-51
2023/05/26 13:37:34;;;;;;;10.33;3.37;;;;;;;;;;5071859;28;20226;-51
2023/05/26 13:40:01;;;;;;;7.10;3.13;;;;;;;;;;5072110;28;20202;-51
2023/05/26 13:42:27;;;;;;;11.33;4.40;;;;;;;;;;5072091;28;20197;-52
2023/05/26 13:44:53;;;;;;;8.43;3.80;;;;;;;;;;5072244;28;20273;-51
2023/05/26 13:47:19;;;;;;;9.47;3.77;;;;;;;;;;5072076;28;20256;-51
2023/05/26 13:49:45;;;;;;;8.87;3.70;;;;;;;;;;5071824;28;20198;-52
2023/05/26 13:52:11;;;;;;;8.23;3.87;;;;;;;;;;5071920;28;20198;-51
2023/05/26 13:54:37;;;;;;;9.17;3.40;;;;;;;;;;5071435;28;20237;-51
2023/05/26 13:57:05;;;;;;;13.70;3.83;;;;;;;;;;5071863;28;20695;-51
2023/05/26 13:59:31;;;;;;;13.90;4.30;;;;;;;;;;5071794;28;20734;-50
2023/05/26 14:01:57;;;;;;;9.87;3.47;;;;;;;;;;5071611;28;20201;-51
2023/05/26 14:04:25;;;;;;;6.83;3.33;;;;;;;;;;5071440;28;20248;-50
2023/05/26 14:06:51;;;;;;;10.00;3.80;;;;;;;;;;5071830;28;20228;-51
2023/05/26 14:09:17;;;;;;;11.93;4.27;;;;;;;;;;5071467;28;20195;-51
2023/05/26 14:11:43;;;;;;;7.93;3.60;;;;;;;;;;5071142;28;20208;-51
2023/05/26 14:14:11;;;;;;;10.93;3.70;;;;;;;;;;5071386;28;20225;-51
2023/05/26 14:16:37;;;;;;;9.20;3.33;;;;;;;;;;5071572;28;20213;-53
2023/05/26 14:19:03;;;;;;;9.93;4.10;;;;;;;;;;5071691;28;20190;-52
2023/05/26 14:21:29;;;;;;;7.77;3.37;;;;;;;;;;5071671;28;20225;-53
2023/05/26 14:23:55;;;;;;;11.43;3.70;;;;;;;;;;5071445;28;20648;-53
2023/05/26 14:26:22;;;;;;;11.10;3.70;;;;;;;;;;5071582;28;20201;-53
2023/05/26 14:28:48;;;;;;;8.93;3.67;;;;;;;;;;5071387;28;20201;-53
2023/05/26 14:31:16;;;;;;;9.33;3.73;;;;;;;;;;5071468;28;20782;-51